Terminal Aerodrome Forecast
Issued by NWS

Home | Current Version | Previous Version | Text Only | Print | Product List | Glossary Off
Versions: 1 2 3 4 5 6 7 8 9 10 11 12 13 14 15 16 17 18

024
FTUS43 KGRB 210520
TAFMTW
TAF
KMTW 210520Z 2106/2206 29003KT P6SM FEW250
     FM211500 22004KT P6SM SCT035
     FM211900 14012G16KT P6SM SCT040
     FM220300 16008KT P6SM SCT035 BKN070 PROB30 2204/2206 -SHRA
      BKN035=

USA.gov is the U.S. government's official web portal to all federal, state and local government web resources and services.